Time;durP1;ratioP1;P1;durP2;ratioP2;P2;SDS_P1;SDS_P2;PMS_P1;PMS_P2;Temp;Humidity;BMP_temperature;BMP_pressure;BME280_temperature;BME280_humidity;BME280_pressure;Samples;Min_cycle;Max_cycle;Signal;HPM_P1;HPM_P2
2021/07/22 00:01:39;;;;;;;14.52;12.60;;;;;;;;;;5049075;28;20566;-66
2021/07/22 00:04:05;;;;;;;14.50;11.27;;;;;;;;;;5058340;28;20499;-66
2021/07/22 00:06:31;;;;;;;13.93;11.50;;;;;;;;;;5056912;28;20043;-66
2021/07/22 00:08:57;;;;;;;13.98;11.77;;;;;;;;;;5062747;28;20047;-66
2021/07/22 00:11:23;;;;;;;14.52;11.68;;;;;;;;;;5057267;28;20037;-66
2021/07/22 00:13:50;;;;;;;13.07;11.68;;;;;;;;;;5061915;28;20074;-66
2021/07/22 00:16:17;;;;;;;12.40;11.10;;;;;;;;;;5057801;28;20233;-67
2021/07/22 00:18:43;;;;;;;16.50;12.23;;;;;;;;;;5063255;28;20107;-67
2021/07/22 00:21:10;;;;;;;15.82;11.65;;;;;;;;;;5059772;28;20057;-67
2021/07/22 00:23:42;;;;;;;16.30;12.45;;;;;;;;;;5059585;28;20044;-67
2021/07/22 00:26:08;;;;;;;15.20;11.63;;;;;;;;;;5061034;28;20051;-67
2021/07/22 00:28:34;;;;;;;12.88;11.50;;;;;;;;;;5056519;28;20036;-67
2021/07/22 00:31:01;;;;;;;15.75;12.70;;;;;;;;;;5056849;28;20053;-67
2021/07/22 00:33:27;;;;;;;16.00;12.13;;;;;;;;;;5058859;28;20094;-67
2021/07/22 00:35:53;;;;;;;15.38;11.75;;;;;;;;;;5060451;28;20044;-67
2021/07/22 00:38:19;;;;;;;13.55;11.77;;;;;;;;;;5055015;28;20037;-67
2021/07/22 00:40:46;;;;;;;14.18;12.15;;;;;;;;;;5063202;28;20045;-67
2021/07/22 00:43:12;;;;;;;14.13;12.50;;;;;;;;;;5048598;28;20033;-67
2021/07/22 00:45:38;;;;;;;14.00;12.50;;;;;;;;;;5062243;28;20047;-66
2021/07/22 00:48:05;;;;;;;13.93;12.50;;;;;;;;;;5058313;28;20119;-66
2021/07/22 00:50:31;;;;;;;14.90;13.38;;;;;;;;;;5063142;28;20067;-66
2021/07/22 00:52:58;;;;;;;17.92;12.52;;;;;;;;;;5052980;28;20449;-66
2021/07/22 00:55:25;;;;;;;16.85;13.35;;;;;;;;;;5057597;28;20037;-66
2021/07/22 00:57:51;;;;;;;15.68;13.00;;;;;;;;;;5058539;28;20115;-66
2021/07/22 01:00:18;;;;;;;12.70;11.40;;;;;;;;;;5061349;28;20542;-66
2021/07/22 01:02:44;;;;;;;14.27;12.43;;;;;;;;;;5061641;28;20505;-66
2021/07/22 01:05:10;;;;;;;14.10;12.57;;;;;;;;;;5053155;28;20056;-66
2021/07/22 01:07:37;;;;;;;15.65;13.07;;;;;;;;;;5064075;28;20063;-66
2021/07/22 01:10:04;;;;;;;16.58;12.52;;;;;;;;;;5052746;28;20052;-66
2021/07/22 01:12:30;;;;;;;15.20;13.35;;;;;;;;;;5061474;28;20155;-66
2021/07/22 01:14:56;;;;;;;14.05;11.43;;;;;;;;;;5051044;28;20044;-66
2021/07/22 01:17:29;;;;;;;15.00;12.38;;;;;;;;;;5062747;28;20091;-66
2021/07/22 01:19:55;;;;;;;14.73;12.98;;;;;;;;;;5049678;28;20040;-66
2021/07/22 01:22:21;;;;;;;15.13;13.00;;;;;;;;;;5059203;28;20132;-66
2021/07/22 01:24:47;;;;;;;15.13;13.63;;;;;;;;;;5052255;28;20045;-67
2021/07/22 01:27:13;;;;;;;22.58;14.13;;;;;;;;;;5064050;28;20057;-67
2021/07/22 01:29:39;;;;;;;17.40;14.48;;;;;;;;;;5052890;28;20089;-67
2021/07/22 01:32:06;;;;;;;16.73;13.68;;;;;;;;;;5038928;28;20053;-67
2021/07/22 01:34:32;;;;;;;15.52;13.75;;;;;;;;;;5055883;28;20465;-67
2021/07/22 01:36:58;;;;;;;15.63;12.63;;;;;;;;;;5058012;28;20061;-67
2021/07/22 01:39:25;;;;;;;14.52;12.75;;;;;;;;;;5050603;28;20040;-67
2021/07/22 01:41:51;;;;;;;14.77;13.27;;;;;;;;;;5060455;28;20063;-67
2021/07/22 01:44:17;;;;;;;14.02;12.55;;;;;;;;;;5062763;28;20395;-67
2021/07/22 01:46:44;;;;;;;14.60;13.10;;;;;;;;;;5056582;28;20036;-67
2021/07/22 01:49:10;;;;;;;13.55;12.15;;;;;;;;;;5055196;28;20116;-67
2021/07/22 01:51:36;;;;;;;13.25;11.70;;;;;;;;;;5056318;28;20481;-67
2021/07/22 01:54:02;;;;;;;14.13;12.60;;;;;;;;;;5061179;28;20037;-67
2021/07/22 01:56:28;;;;;;;16.40;12.35;;;;;;;;;;5050590;28;20037;-67
2021/07/22 01:58:54;;;;;;;14.45;12.95;;;;;;;;;;5058168;28;20052;-67
2021/07/22 02:01:20;;;;;;;13.70;12.30;;;;;;;;;;5054236;28;20040;-66
2021/07/22 02:03:47;;;;;;;14.90;13.32;;;;;;;;;;5062813;28;20538;-66
2021/07/22 02:06:13;;;;;;;13.95;11.75;;;;;;;;;;5055698;28;20032;-66
2021/07/22 02:08:39;;;;;;;13.05;11.68;;;;;;;;;;5057880;28;20093;-66
2021/07/22 02:11:06;;;;;;;14.52;12.70;;;;;;;;;;5051649;28;20058;-66
2021/07/22 02:13:32;;;;;;;14.60;12.50;;;;;;;;;;5063342;28;20028;-66
2021/07/22 02:15:58;;;;;;;16.90;13.00;;;;;;;;;;5056351;28;20969;-66
2021/07/22 02:18:24;;;;;;;14.93;13.05;;;;;;;;;;5058393;28;20071;-66
2021/07/22 02:20:51;;;;;;;14.25;12.75;;;;;;;;;;5051398;28;20102;-66
2021/07/22 02:23:18;;;;;;;13.30;11.90;;;;;;;;;;5060552;28;20060;-66
2021/07/22 02:25:44;;;;;;;14.13;12.60;;;;;;;;;;5059798;28;20086;-66
2021/07/22 02:28:10;;;;;;;14.27;12.68;;;;;;;;;;5053136;28;20066;-66
2021/07/22 02:30:36;;;;;;;16.08;13.82;;;;;;;;;;5056849;28;20052;-66
2021/07/22 02:33:03;;;;;;;14.07;12.68;;;;;;;;;;5051687;28;20079;-66
2021/07/22 02:35:29;;;;;;;13.93;12.50;;;;;;;;;;5058932;28;20454;-66
2021/07/22 02:37:55;;;;;;;15.68;12.70;;;;;;;;;;5051897;28;20041;-67
2021/07/22 02:40:21;;;;;;;15.40;12.82;;;;;;;;;;5058799;28;20395;-67
2021/07/22 02:42:47;;;;;;;14.25;12.73;;;;;;;;;;5053940;28;20428;-67
2021/07/22 02:45:14;;;;;;;15.27;12.68;;;;;;;;;;5061768;28;20317;-67
2021/07/22 02:47:40;;;;;;;19.77;13.40;;;;;;;;;;5053379;28;20051;-67
2021/07/22 02:50:06;;;;;;;16.30;13.93;;;;;;;;;;5064055;28;20323;-67
2021/07/22 02:52:34;;;;;;;17.65;15.45;;;;;;;;;;5037056;28;20041;-67
2021/07/22 02:55:00;;;;;;;17.45;15.02;;;;;;;;;;5055239;28;20033;-67
2021/07/22 02:57:27;;;;;;;19.10;15.68;;;;;;;;;;5054642;28;20094;-67
2021/07/22 02:59:53;;;;;;;18.20;15.65;;;;;;;;;;5060517;28;20071;-67
2021/07/22 03:02:20;;;;;;;19.85;15.50;;;;;;;;;;5059180;28;20045;-67
2021/07/22 03:04:46;;;;;;;17.55;15.48;;;;;;;;;;5053050;28;20048;-66
2021/07/22 03:07:12;;;;;;;17.52;14.77;;;;;;;;;;5063788;28;20041;-66
2021/07/22 03:09:38;;;;;;;16.73;14.07;;;;;;;;;;5058242;28;20094;-66
2021/07/22 03:12:04;;;;;;;19.30;15.07;;;;;;;;;;5057441;28;20036;-66
2021/07/22 03:14:30;;;;;;;17.23;15.55;;;;;;;;;;5056488;28;20749;-66
2021/07/22 03:16:56;;;;;;;18.60;15.07;;;;;;;;;;5059580;28;20040;-66
2021/07/22 03:19:23;;;;;;;17.63;15.45;;;;;;;;;;5048539;28;20327;-66
2021/07/22 03:21:49;;;;;;;18.45;15.10;;;;;;;;;;5059402;28;20057;-66
2021/07/22 03:24:15;;;;;;;17.83;15.90;;;;;;;;;;5056268;28;20051;-66
2021/07/22 03:26:41;;;;;;;19.80;15.23;;;;;;;;;;5060936;28;20041;-66
2021/07/22 03:29:07;;;;;;;17.77;15.88;;;;;;;;;;5049872;28;20043;-66
2021/07/22 03:31:35;;;;;;;17.55;15.73;;;;;;;;;;5054731;28;20374;-66
2021/07/22 03:34:02;;;;;;;20.52;16.10;;;;;;;;;;5053624;28;20064;-66
2021/07/22 03:36:29;;;;;;;18.23;15.38;;;;;;;;;;5061200;28;20079;-66
2021/07/22 03:38:55;;;;;;;18.13;16.23;;;;;;;;;;5052680;28;20142;-66
2021/07/22 03:41:22;;;;;;;20.92;16.52;;;;;;;;;;5055909;28;20089;-66
2021/07/22 03:43:49;;;;;;;19.20;16.92;;;;;;;;;;5063624;28;20389;-66
2021/07/22 03:46:17;;;;;;;20.75;17.33;;;;;;;;;;5058566;28;20145;-66
2021/07/22 03:48:44;;;;;;;19.05;17.05;;;;;;;;;;5062644;28;20040;-66
2021/07/22 03:51:10;;;;;;;19.73;17.27;;;;;;;;;;5056020;28;20033;-66
2021/07/22 03:53:36;;;;;;;19.65;15.57;;;;;;;;;;5066333;28;20443;-66
2021/07/22 03:56:02;;;;;;;17.35;15.63;;;;;;;;;;5054726;28;20032;-66
2021/07/22 03:58:29;;;;;;;19.17;14.77;;;;;;;;;;5064802;28;20259;-66
2021/07/22 04:00:57;;;;;;;18.40;15.43;;;;;;;;;;5054356;28;20136;-66
2021/07/22 04:03:26;;;;;;;16.65;14.95;;;;;;;;;;5041391;28;20147;-66
2021/07/22 04:05:53;;;;;;;20.88;16.25;;;;;;;;;;5058934;28;20451;-66
2021/07/22 04:08:19;;;;;;;16.95;15.13;;;;;;;;;;5061351;28;20442;-66
2021/07/22 04:10:45;;;;;;;17.10;15.40;;;;;;;;;;5055069;28;20048;-66
2021/07/22 04:13:11;;;;;;;17.95;16.05;;;;;;;;;;5062018;28;20109;-66
2021/07/22 04:15:37;;;;;;;17.67;14.50;;;;;;;;;;5056145;28;20082;-67
2021/07/22 04:18:03;;;;;;;16.88;15.10;;;;;;;;;;5068174;28;20044;-67
2021/07/22 04:20:30;;;;;;;17.55;15.77;;;;;;;;;;5053431;28;20040;-67
2021/07/22 04:22:59;;;;;;;19.17;16.38;;;;;;;;;;5060364;28;20115;-67
2021/07/22 04:25:26;;;;;;;16.95;14.95;;;;;;;;;;5059297;28;20242;-66
2021/07/22 04:27:52;;;;;;;17.58;14.75;;;;;;;;;;5053764;28;20417;-66
2021/07/22 04:30:18;;;;;;;18.05;16.13;;;;;;;;;;5056494;28;20516;-66
2021/07/22 04:32:47;;;;;;;17.27;15.48;;;;;;;;;;5055492;28;20677;-67
2021/07/22 04:35:14;;;;;;;18.25;16.33;;;;;;;;;;5063908;28;20167;-66
2021/07/22 04:37:40;;;;;;;19.15;17.08;;;;;;;;;;5055285;28;20155;-66
2021/07/22 04:40:07;;;;;;;19.50;15.52;;;;;;;;;;5061899;28;20166;-66
2021/07/22 04:42:33;;;;;;;17.33;15.40;;;;;;;;;;5056136;28;20044;-66
2021/07/22 04:45:00;;;;;;;19.33;17.02;;;;;;;;;;5060802;28;20045;-66
2021/07/22 04:47:26;;;;;;;20.05;15.98;;;;;;;;;;5058281;28;20032;-66
2021/07/22 04:49:52;;;;;;;17.58;15.57;;;;;;;;;;5061782;28;20091;-67
2021/07/22 04:52:18;;;;;;;18.17;16.35;;;;;;;;;;5059580;28;20358;-67
2021/07/22 04:54:44;;;;;;;19.15;16.65;;;;;;;;;;5065243;28;20534;-67
2021/07/22 04:57:11;;;;;;;18.08;16.05;;;;;;;;;;5053051;28;21474;-67
2021/07/22 04:59:37;;;;;;;20.40;15.98;;;;;;;;;;5061650;28;20036;-66
2021/07/22 05:02:03;;;;;;;20.33;17.10;;;;;;;;;;5060592;28;20082;-66
2021/07/22 05:04:29;;;;;;;18.63;16.42;;;;;;;;;;5056046;28;20412;-66
2021/07/22 05:06:57;;;;;;;19.48;15.65;;;;;;;;;;5063910;28;20047;-66
2021/07/22 05:09:23;;;;;;;17.50;15.68;;;;;;;;;;5060498;28;20689;-66
2021/07/22 05:11:49;;;;;;;21.52;16.45;;;;;;;;;;5059948;28;20053;-66
2021/07/22 05:14:16;;;;;;;18.70;15.90;;;;;;;;;;5056780;28;20040;-66
2021/07/22 05:16:42;;;;;;;16.25;14.55;;;;;;;;;;5065739;28;20036;-66
2021/07/22 05:19:10;;;;;;;17.52;14.73;;;;;;;;;;5053236;28;20156;-67
2021/07/22 05:21:36;;;;;;;17.50;15.80;;;;;;;;;;5065024;28;20083;-67
2021/07/22 05:24:02;;;;;;;20.00;15.32;;;;;;;;;;5056051;28;20067;-67
2021/07/22 05:26:29;;;;;;;18.48;16.17;;;;;;;;;;5064393;28;20040;-67
2021/07/22 05:28:55;;;;;;;18.33;16.42;;;;;;;;;;5057770;28;20480;-67
2021/07/22 05:31:21;;;;;;;17.77;14.85;;;;;;;;;;5061531;28;20036;-67
2021/07/22 05:33:47;;;;;;;16.92;15.02;;;;;;;;;;5056543;28;20443;-67
2021/07/22 05:36:14;;;;;;;18.23;13.88;;;;;;;;;;5064953;28;20484;-67
2021/07/22 05:38:40;;;;;;;15.23;13.05;;;;;;;;;;5061288;28;20115;-67
2021/07/22 05:41:07;;;;;;;17.75;13.65;;;;;;;;;;5060488;28;20037;-67
2021/07/22 05:43:33;;;;;;;17.45;14.30;;;;;;;;;;5067845;28;20049;-67
2021/07/22 05:45:59;;;;;;;15.32;13.68;;;;;;;;;;5061150;28;20036;-67
2021/07/22 05:48:25;;;;;;;16.65;13.05;;;;;;;;;;5068589;28;20420;-67
2021/07/22 05:50:52;;;;;;;15.27;13.18;;;;;;;;;;5056349;28;20032;-67
2021/07/22 05:53:18;;;;;;;16.10;13.23;;;;;;;;;;5060475;28;20037;-67
2021/07/22 05:55:45;;;;;;;15.25;13.65;;;;;;;;;;5056358;28;20127;-66
2021/07/22 05:58:11;;;;;;;16.00;13.13;;;;;;;;;;5063982;28;20047;-67
2021/07/22 06:00:37;;;;;;;14.27;12.75;;;;;;;;;;5056904;28;20523;-67
2021/07/22 06:03:04;;;;;;;13.20;11.82;;;;;;;;;;5066118;28;20043;-67
2021/07/22 06:05:30;;;;;;;14.68;12.23;;;;;;;;;;5055482;28;20061;-67
2021/07/22 06:07:57;;;;;;;16.10;11.93;;;;;;;;;;5065620;28;20048;-67
2021/07/22 06:10:23;;;;;;;15.25;11.93;;;;;;;;;;5057425;28;20041;-67
2021/07/22 06:12:49;;;;;;;13.38;11.73;;;;;;;;;;5058455;28;20557;-67
2021/07/22 06:15:15;;;;;;;12.80;10.90;;;;;;;;;;5058802;28;20079;-67
2021/07/22 06:17:42;;;;;;;13.43;11.38;;;;;;;;;;5060633;28;20044;-67
2021/07/22 06:20:08;;;;;;;13.60;10.90;;;;;;;;;;5054210;28;20041;-67
2021/07/22 06:22:35;;;;;;;12.57;9.88;;;;;;;;;;5063876;28;20416;-67
2021/07/22 06:25:02;;;;;;;12.88;9.77;;;;;;;;;;5065353;28;20064;-67
2021/07/22 06:27:28;;;;;;;11.68;9.27;;;;;;;;;;5058747;28;20135;-67
2021/07/22 06:29:54;;;;;;;11.85;9.57;;;;;;;;;;5062704;28;20534;-67
2021/07/22 06:32:20;;;;;;;13.07;10.70;;;;;;;;;;5058589;28;20043;-67
2021/07/22 06:34:46;;;;;;;11.30;9.68;;;;;;;;;;5058518;28;20120;-67
2021/07/22 06:37:14;;;;;;;10.88;9.38;;;;;;;;;;5055704;28;20057;-67
2021/07/22 06:39:40;;;;;;;11.45;9.25;;;;;;;;;;5061804;28;20040;-67
2021/07/22 06:42:06;;;;;;;9.55;7.30;;;;;;;;;;5034150;28;20127;-67
2021/07/22 06:44:32;;;;;;;8.07;6.65;;;;;;;;;;5059423;28;20060;-67
2021/07/22 06:47:00;;;;;;;7.93;5.88;;;;;;;;;;5054331;28;20116;-67
2021/07/22 06:49:26;;;;;;;8.82;5.90;;;;;;;;;;5058897;28;20481;-67
2021/07/22 06:51:52;;;;;;;6.88;5.10;;;;;;;;;;5049143;28;20036;-67
2021/07/22 06:54:19;;;;;;;5.47;4.32;;;;;;;;;;5059016;28;20041;-67
2021/07/22 06:56:45;;;;;;;6.50;4.63;;;;;;;;;;5052071;28;20036;-67
2021/07/22 06:59:11;;;;;;;7.57;4.70;;;;;;;;;;5056174;28;20488;-67
2021/07/22 07:01:37;;;;;;;5.47;4.20;;;;;;;;;;5058922;28;20047;-67
2021/07/22 07:04:04;;;;;;;5.63;4.75;;;;;;;;;;5049918;28;20529;-67
2021/07/22 07:06:30;;;;;;;7.53;3.85;;;;;;;;;;5061292;28;20123;-67
2021/07/22 07:08:57;;;;;;;6.97;4.30;;;;;;;;;;5049756;28;20044;-66
2021/07/22 07:11:23;;;;;;;5.28;4.30;;;;;;;;;;5055511;28;20071;-66
2021/07/22 07:13:49;;;;;;;5.13;4.47;;;;;;;;;;5047757;28;20047;-67
2021/07/22 07:16:15;;;;;;;5.43;4.07;;;;;;;;;;5061204;28;20032;-67
2021/07/22 07:18:41;;;;;;;7.88;4.03;;;;;;;;;;5052728;28;20459;-67
2021/07/22 07:21:07;;;;;;;5.95;3.75;;;;;;;;;;5053086;28;20045;-67
2021/07/22 07:23:34;;;;;;;11.32;4.07;;;;;;;;;;5056923;28;20102;-67
2021/07/22 07:26:00;;;;;;;5.25;3.80;;;;;;;;;;5056392;28;20094;-67
2021/07/22 07:28:27;;;;;;;8.70;4.30;;;;;;;;;;5057203;28;20063;-67
2021/07/22 07:30:53;;;;;;;5.82;3.60;;;;;;;;;;5044741;28;20051;-68
2021/07/22 07:33:20;;;;;;;6.18;3.67;;;;;;;;;;5049648;28;20044;-68
2021/07/22 07:35:47;;;;;;;6.22;4.30;;;;;;;;;;5060375;28;20077;-66
2021/07/22 07:38:13;;;;;;;6.10;4.00;;;;;;;;;;5053258;28;20132;-66
2021/07/22 07:40:40;;;;;;;5.60;4.05;;;;;;;;;;5061204;28;20052;-66
2021/07/22 07:43:06;;;;;;;5.10;3.97;;;;;;;;;;5060384;28;20070;-68
2021/07/22 07:45:32;;;;;;;5.35;3.75;;;;;;;;;;5050464;28;20434;-67
2021/07/22 07:47:58;;;;;;;5.03;3.65;;;;;;;;;;5060904;28;20048;-67
2021/07/22 07:50:24;;;;;;;6.88;3.88;;;;;;;;;;5061866;28;20048;-68
2021/07/22 07:52:50;;;;;;;6.35;4.40;;;;;;;;;;5055500;28;20032;-69
2021/07/22 07:55:16;;;;;;;5.55;3.65;;;;;;;;;;5051599;28;20047;-68
2021/07/22 07:57:43;;;;;;;6.18;3.63;;;;;;;;;;5061073;28;20037;-66
2021/07/22 08:00:09;;;;;;;4.22;3.65;;;;;;;;;;5048105;28;20041;-68
2021/07/22 08:02:36;;;;;;;6.68;3.97;;;;;;;;;;5060846;28;20063;-66
2021/07/22 08:05:02;;;;;;;6.15;3.95;;;;;;;;;;5055346;28;20041;-65
2021/07/22 08:07:29;;;;;;;8.50;3.90;;;;;;;;;;5057578;28;20052;-66
2021/07/22 08:09:55;;;;;;;6.30;4.25;;;;;;;;;;5049152;28;20466;-66
2021/07/22 08:12:21;;;;;;;4.85;3.60;;;;;;;;;;5060701;28;20033;-66
2021/07/22 08:14:47;;;;;;;6.80;3.60;;;;;;;;;;5052907;28;20048;-65
2021/07/22 08:17:15;;;;;;;4.40;3.83;;;;;;;;;;5061987;28;20397;-65
2021/07/22 08:19:41;;;;;;;6.18;4.40;;;;;;;;;;5055447;28;20040;-67
2021/07/22 08:22:07;;;;;;;4.63;3.67;;;;;;;;;;5052945;28;20059;-67
2021/07/22 08:24:33;;;;;;;8.68;4.43;;;;;;;;;;5062247;28;20045;-68
2021/07/22 08:26:59;;;;;;;4.80;3.45;;;;;;;;;;5050957;28;20500;-68
2021/07/22 08:29:25;;;;;;;8.00;4.53;;;;;;;;;;5057817;28;20037;-68
2021/07/22 08:31:51;;;;;;;6.00;3.80;;;;;;;;;;5056263;28;20045;-66
2021/07/22 08:34:19;;;;;;;5.95;3.70;;;;;;;;;;5063101;28;20037;-67
2021/07/22 08:36:46;;;;;;;5.72;4.00;;;;;;;;;;5057820;28;20048;-69
2021/07/22 08:39:12;;;;;;;4.57;3.38;;;;;;;;;;5062186;28;20040;-68
2021/07/22 08:41:46;;;;;;;6.55;3.88;;;;;;;;;;5055156;28;20052;-69
2021/07/22 08:44:13;;;;;;;5.27;3.87;;;;;;;;;;5061551;28;20044;-68
2021/07/22 08:46:42;;;;;;;6.05;3.78;;;;;;;;;;5057606;28;20679;-68
2021/07/22 08:49:09;;;;;;;6.88;4.10;;;;;;;;;;5064153;28;20049;-68
2021/07/22 08:51:35;;;;;;;5.00;3.80;;;;;;;;;;5056095;28;20037;-69
2021/07/22 08:54:02;;;;;;;4.25;3.33;;;;;;;;;;5059427;28;20040;-70
2021/07/22 08:56:28;;;;;;;5.32;3.78;;;;;;;;;;5041374;28;20041;-68
2021/07/22 08:58:58;;;;;;;4.88;3.60;;;;;;;;;;5062424;28;20049;-68
2021/07/22 09:01:26;;;;;;;5.28;3.70;;;;;;;;;;5055246;28;20681;-68
2021/07/22 09:03:53;;;;;;;5.97;4.00;;;;;;;;;;5055784;28;20060;-67
2021/07/22 09:06:20;;;;;;;4.85;3.53;;;;;;;;;;5065778;28;20089;-68
2021/07/22 09:08:46;;;;;;;5.07;3.67;;;;;;;;;;5055329;28;20489;-68
2021/07/22 09:11:12;;;;;;;8.45;3.63;;;;;;;;;;5062714;28;20041;-67
2021/07/22 09:13:39;;;;;;;5.60;3.65;;;;;;;;;;5059265;28;20504;-68
2021/07/22 09:16:05;;;;;;;6.32;3.90;;;;;;;;;;5059673;28;20060;-66
2021/07/22 09:18:39;;;;;;;4.18;3.28;;;;;;;;;;5050810;28;20037;-67
2021/07/22 09:21:22;;;;;;;4.20;3.63;;;;;;;;;;5061733;28;20068;-67
2021/07/22 09:24:08;;;;;;;4.60;3.38;;;;;;;;;;5055947;28;20135;-67
2021/07/22 09:26:35;;;;;;;3.88;3.47;;;;;;;;;;5058679;28;20066;-67
2021/07/22 09:29:05;;;;;;;6.10;3.90;;;;;;;;;;5056320;28;20052;-67
2021/07/22 09:31:32;;;;;;;5.65;3.35;;;;;;;;;;5060195;28;20041;-67
2021/07/22 09:33:58;;;;;;;5.95;3.85;;;;;;;;;;5052720;28;20029;-67
2021/07/22 09:36:24;;;;;;;4.38;3.35;;;;;;;;;;5065218;28;20047;-67
2021/07/22 09:38:50;;;;;;;5.28;3.25;;;;;;;;;;5055983;28;20049;-67
2021/07/22 09:41:26;;;;;;;5.32;3.28;;;;;;;;;;5062716;28;20543;-67
2021/07/22 09:43:52;;;;;;;5.45;3.42;;;;;;;;;;5049295;28;20037;-68
2021/07/22 09:46:18;;;;;;;4.40;3.55;;;;;;;;;;5062713;28;20071;-68
2021/07/22 09:49:03;;;;;;;5.55;3.10;;;;;;;;;;5055959;28;20481;-68
2021/07/22 09:51:32;;;;;;;4.30;3.00;;;;;;;;;;5066889;28;20033;-68
2021/07/22 09:54:09;;;;;;;4.93;3.25;;;;;;;;;;5054739;28;20044;-73
2021/07/22 09:56:36;;;;;;;4.30;3.50;;;;;;;;;;5057605;28;20037;-73
2021/07/22 09:59:02;;;;;;;3.92;3.50;;;;;;;;;;5056569;28;20187;-73
2021/07/22 10:01:29;;;;;;;4.05;3.17;;;;;;;;;;5057615;28;20489;-74
2021/07/22 10:03:57;;;;;;;4.13;3.53;;;;;;;;;;5043687;28;20048;-73
2021/07/22 10:06:23;;;;;;;4.28;3.35;;;;;;;;;;5063014;28;20041;-73
2021/07/22 10:08:49;;;;;;;3.38;3.05;;;;;;;;;;5059798;28;20059;-74
2021/07/22 10:11:16;;;;;;;4.25;3.70;;;;;;;;;;5060282;28;20041;-74
2021/07/22 10:13:43;;;;;;;4.15;3.40;;;;;;;;;;5056267;28;20039;-74
2021/07/22 10:16:15;;;;;;;4.88;3.30;;;;;;;;;;5052802;28;20043;-74
2021/07/22 10:18:45;;;;;;;5.15;2.88;;;;;;;;;;5061126;28;20530;-73
2021/07/22 10:21:11;;;;;;;4.78;3.50;;;;;;;;;;5054701;28;20058;-73
2021/07/22 10:23:39;;;;;;;4.95;3.00;;;;;;;;;;5057413;28;20127;-74
2021/07/22 10:26:06;;;;;;;4.75;2.95;;;;;;;;;;5049297;28;20040;-73
2021/07/22 10:28:32;;;;;;;3.78;2.38;;;;;;;;;;5057424;28;20039;-73
2021/07/22 10:30:58;;;;;;;3.00;2.10;;;;;;;;;;5058286;28;20134;-74
2021/07/22 10:33:25;;;;;;;3.95;2.75;;;;;;;;;;5060353;28;20396;-74
2021/07/22 10:35:52;;;;;;;4.43;2.75;;;;;;;;;;5050111;28;20642;-73
2021/07/22 10:38:23;;;;;;;2.58;2.30;;;;;;;;;;5055160;28;20059;-73
2021/07/22 10:40:57;;;;;;;4.03;2.53;;;;;;;;;;5053217;28;20048;-73
2021/07/22 10:43:30;;;;;;;4.57;2.80;;;;;;;;;;5059531;28;20215;-74
2021/07/22 10:45:56;;;;;;;3.83;2.35;;;;;;;;;;5035028;28;20045;-74
2021/07/22 10:48:26;;;;;;;5.13;2.55;;;;;;;;;;5062055;28;20381;-74
2021/07/22 10:50:52;;;;;;;6.32;2.83;;;;;;;;;;5055778;28;20396;-74
2021/07/22 10:53:34;;;;;;;4.90;2.50;;;;;;;;;;5063629;28;20040;-75
2021/07/22 10:56:00;;;;;;;6.00;2.38;;;;;;;;;;5040522;28;20491;-75
2021/07/22 10:58:33;;;;;;;2.60;2.05;;;;;;;;;;5062214;28;20052;-75
2021/07/22 11:01:00;;;;;;;4.18;2.65;;;;;;;;;;5036203;28;20128;-74
2021/07/22 11:03:35;;;;;;;3.97;2.25;;;;;;;;;;5059425;28;20384;-74
2021/07/22 11:06:03;;;;;;;4.20;2.30;;;;;;;;;;5059137;28;20032;-74
2021/07/22 11:08:29;;;;;;;3.40;2.20;;;;;;;;;;5035609;28;20105;-74
2021/07/22 11:10:55;;;;;;;3.15;2.05;;;;;;;;;;5053528;28;20115;-74
2021/07/22 11:13:34;;;;;;;4.15;2.55;;;;;;;;;;5053088;28;20595;-73
2021/07/22 11:16:01;;;;;;;3.13;1.77;;;;;;;;;;5061617;28;20469;-73
2021/07/22 11:18:50;;;;;;;3.53;2.33;;;;;;;;;;5047847;28;20523;-73
2021/07/22 11:21:23;;;;;;;3.25;2.95;;;;;;;;;;5038740;28;20462;-73
2021/07/22 11:23:53;;;;;;;2.90;2.10;;;;;;;;;;5048974;28;20041;-73
2021/07/22 11:26:23;;;;;;;2.60;1.83;;;;;;;;;;5059620;28;20777;-74
2021/07/22 11:28:49;;;;;;;3.00;1.98;;;;;;;;;;5051291;28;20095;-75
2021/07/22 11:31:16;;;;;;;2.42;2.17;;;;;;;;;;5033569;28;20417;-73
2021/07/22 11:33:42;;;;;;;4.75;1.92;;;;;;;;;;5051399;28;20033;-73
2021/07/22 11:36:09;;;;;;;4.75;2.20;;;;;;;;;;5054034;28;20682;-73
2021/07/22 11:38:37;;;;;;;2.17;1.95;;;;;;;;;;5051747;28;20037;-74
2021/07/22 11:41:10;;;;;;;2.88;1.90;;;;;;;;;;5053335;28;20036;-75
2021/07/22 11:43:40;;;;;;;3.55;2.10;;;;;;;;;;5054251;28;20445;-75
2021/07/22 11:46:08;;;;;;;5.78;2.20;;;;;;;;;;5056251;28;20033;-75
2021/07/22 11:48:34;;;;;;;3.00;1.73;;;;;;;;;;5032298;28;20048;-74
2021/07/22 11:51:03;;;;;;;2.00;1.38;;;;;;;;;;5055021;28;20071;-74
2021/07/22 11:53:30;;;;;;;2.60;2.03;;;;;;;;;;5054761;28;20428;-74
2021/07/22 11:56:00;;;;;;;2.72;1.52;;;;;;;;;;5041241;28;20405;-73
2021/07/22 11:58:27;;;;;;;2.85;2.10;;;;;;;;;;5046414;28;20478;-73
2021/07/22 12:00:54;;;;;;;3.90;1.83;;;;;;;;;;5040835;28;20117;-74
2021/07/22 12:03:24;;;;;;;4.35;2.30;;;;;;;;;;5051994;28;20440;-74
2021/07/22 12:05:50;;;;;;;4.28;1.70;;;;;;;;;;5058411;28;20049;-73
2021/07/22 12:08:17;;;;;;;3.28;1.65;;;;;;;;;;5059327;28;20029;-73
2021/07/22 12:10:43;;;;;;;4.03;2.33;;;;;;;;;;5057860;28;20045;-73
2021/07/22 12:13:10;;;;;;;3.33;1.77;;;;;;;;;;5045228;28;20393;-74
2021/07/22 12:15:40;;;;;;;3.50;2.13;;;;;;;;;;5057685;28;20028;-73
2021/07/22 12:18:07;;;;;;;3.40;1.90;;;;;;;;;;5059481;28;20040;-73
2021/07/22 12:20:33;;;;;;;3.28;1.85;;;;;;;;;;5055179;28;20039;-73
2021/07/22 12:23:00;;;;;;;4.97;1.98;;;;;;;;;;5046981;28;20048;-73
2021/07/22 12:25:28;;;;;;;4.20;1.55;;;;;;;;;;5050346;28;20045;-72
2021/07/22 12:27:56;;;;;;;3.25;1.30;;;;;;;;;;5042721;28;20032;-72
2021/07/22 12:30:27;;;;;;;3.95;1.50;;;;;;;;;;5043447;28;20037;-73
2021/07/22 12:33:03;;;;;;;1.77;1.23;;;;;;;;;;5063975;28;20408;-72
2021/07/22 12:35:34;;;;;;;2.30;1.50;;;;;;;;;;5043625;28;20064;-72
2021/07/22 12:38:03;;;;;;;2.35;1.42;;;;;;;;;;5045542;28;20065;-72
2021/07/22 12:40:33;;;;;;;4.40;1.73;;;;;;;;;;5039098;28;20484;-72
2021/07/22 12:43:00;;;;;;;2.90;1.88;;;;;;;;;;5064578;28;20036;-73
2021/07/22 12:45:27;;;;;;;3.00;1.63;;;;;;;;;;5035949;28;20060;-73
2021/07/22 12:47:53;;;;;;;2.65;1.55;;;;;;;;;;5060395;28;20120;-73
2021/07/22 12:50:36;;;;;;;3.10;1.40;;;;;;;;;;5052253;28;20033;-73
2021/07/22 12:53:09;;;;;;;3.17;1.50;;;;;;;;;;5064708;28;20048;-73
2021/07/22 12:55:35;;;;;;;;;;;;;;;;;;5040786;28;20059;-72
2021/07/22 12:58:02;;;;;;;3.03;1.50;;;;;;;;;;5063448;28;20379;-72
2021/07/22 13:00:29;;;;;;;3.17;1.40;;;;;;;;;;5065142;28;20453;-73
2021/07/22 13:02:58;;;;;;;2.78;1.20;;;;;;;;;;5056190;28;20102;-73
2021/07/22 13:05:25;;;;;;;1.98;1.20;;;;;;;;;;5059698;28;20036;-73
2021/07/22 13:07:51;;;;;;;2.08;1.48;;;;;;;;;;5051231;28;20032;-73
2021/07/22 13:10:18;;;;;;;2.88;1.10;;;;;;;;;;5058411;28;20037;-73
2021/07/22 13:12:44;;;;;;;3.38;1.30;;;;;;;;;;5055322;28;20049;-74
2021/07/22 13:15:11;;;;;;;3.97;1.48;;;;;;;;;;5040103;28;20059;-73
2021/07/22 13:17:40;;;;;;;2.60;1.38;;;;;;;;;;5056098;28;20039;-76
2021/07/22 13:20:07;;;;;;;4.13;2.20;;;;;;;;;;5060778;28;20457;-72
2021/07/22 13:22:34;;;;;;;2.10;1.02;;;;;;;;;;5036939;28;20045;-71
2021/07/22 13:25:00;;;;;;;2.53;1.42;;;;;;;;;;5059886;28;20067;-69
2021/07/22 13:27:26;;;;;;;1.90;1.33;;;;;;;;;;5050464;28;20084;-72
2021/07/22 13:29:52;;;;;;;2.15;1.23;;;;;;;;;;5043730;28;20492;-72
2021/07/22 13:32:18;;;;;;;1.70;1.17;;;;;;;;;;5054852;28;20041;-73
2021/07/22 13:34:45;;;;;;;3.30;1.60;;;;;;;;;;5062685;28;20477;-72
2021/07/22 13:37:11;;;;;;;2.80;1.23;;;;;;;;;;5051992;28;20045;-72
2021/07/22 13:39:38;;;;;;;2.10;1.38;;;;;;;;;;5063469;28;20041;-73
2021/07/22 13:42:07;;;;;;;3.38;1.13;;;;;;;;;;5058071;28;20040;-73
2021/07/22 13:44:34;;;;;;;1.98;1.10;;;;;;;;;;5061894;28;20032;-73
2021/07/22 13:47:01;;;;;;;2.92;1.25;;;;;;;;;;5065023;28;20048;-68
2021/07/22 13:49:27;;;;;;;3.80;1.85;;;;;;;;;;5057071;28;20045;-69
2021/07/22 13:51:53;;;;;;;2.55;1.27;;;;;;;;;;5057311;28;20404;-69
2021/07/22 13:54:20;;;;;;;2.88;1.15;;;;;;;;;;5054347;28;20384;-69
2021/07/22 13:56:46;;;;;;;4.35;1.20;;;;;;;;;;5059403;28;20452;-69
2021/07/22 13:59:12;;;;;;;2.53;1.13;;;;;;;;;;5057421;28;20060;-71
2021/07/22 14:01:38;;;;;;;1.42;1.17;;;;;;;;;;5060531;28;20409;-71
2021/07/22 14:04:07;;;;;;;2.33;1.33;;;;;;;;;;5050676;28;20046;-71
2021/07/22 14:06:33;;;;;;;3.92;1.35;;;;;;;;;;5056211;28;20036;-71
2021/07/22 14:09:00;;;;;;;1.85;1.20;;;;;;;;;;5052367;28;20047;-71
2021/07/22 14:11:26;;;;;;;3.33;1.08;;;;;;;;;;5058437;28;20040;-71
2021/07/22 14:13:52;;;;;;;3.10;1.63;;;;;;;;;;5034902;28;20045;-66
2021/07/22 14:16:18;;;;;;;2.95;1.75;;;;;;;;;;5058264;28;20112;-67
2021/07/22 14:18:44;;;;;;;3.40;1.60;;;;;;;;;;5040385;28;20088;-66
2021/07/22 14:21:10;;;;;;;2.80;1.70;;;;;;;;;;5054195;28;20132;-66
2021/07/22 14:23:36;;;;;;;2.38;1.42;;;;;;;;;;5058754;28;20048;-66
2021/07/22 14:26:03;;;;;;;3.08;1.60;;;;;;;;;;5052295;28;20526;-66
2021/07/22 14:28:29;;;;;;;4.68;1.65;;;;;;;;;;5059852;28;20061;-66
2021/07/22 14:30:55;;;;;;;3.00;1.63;;;;;;;;;;5051733;28;20033;-66